Time;durP1;ratioP1;P1;durP2;ratioP2;P2;SDS_P1;SDS_P2;PMS_P1;PMS_P2;Temp;Humidity;BMP_temperature;BMP_pressure;BME280_temperature;BME280_humidity;BME280_pressure;Samples;Min_cycle;Max_cycle;Signal;HPM_P1;HPM_P2
2023/01/01 00:01:20;;;;;;;3.97;1.40;;;;;;;19.27;56.20;100452.47;5076377;28;20544;-66
2023/01/01 00:03:53;;;;;;;2.53;1.03;;;;;;;19.26;55.93;100456.53;5072759;28;20414;-66
2023/01/01 00:06:18;;;;;;;2.83;1.00;;;;;;;19.26;56.14;100460.22;5057270;28;20210;-66
2023/01/01 00:08:45;;;;;;;3.70;1.77;;;;;;;19.27;56.23;100466.78;5090060;28;20849;-66
2023/01/01 00:11:11;;;;;;;3.63;1.00;;;;;;;19.26;56.17;100454.50;5075133;28;20198;-66
2023/01/01 00:13:39;;;;;;;3.83;1.00;;;;;;;19.25;56.19;100464.28;5054613;28;20421;-66
2023/01/01 00:16:09;;;;;;;3.13;1.13;;;;;;;19.27;55.90;100461.88;5072440;28;20269;-66
2023/01/01 00:18:35;;;;;;;3.13;1.17;;;;;;;19.28;55.89;100460.69;5087608;28;20444;-66
2023/01/01 00:21:04;;;;;;;5.23;1.60;;;;;;;19.26;55.98;100453.69;5112765;28;20784;-66
2023/01/01 00:23:34;;;;;;;4.20;1.13;;;;;;;19.27;56.19;100463.91;5106750;28;20239;-66
2023/01/01 00:25:59;;;;;;;3.17;1.33;;;;;;;19.25;56.18;100454.88;5072681;28;20453;-66
2023/01/01 00:28:25;;;;;;;4.20;1.27;;;;;;;19.25;56.09;100449.13;5072293;28;20444;-66
2023/01/01 00:30:50;;;;;;;2.50;1.10;;;;;;;19.22;56.07;100447.88;5071788;28;20606;-66
2023/01/01 00:33:16;;;;;;;4.73;1.80;;;;;;;19.22;56.21;100453.59;5058446;28;20617;-66
2023/01/01 00:35:41;;;;;;;3.17;1.60;;;;;;;19.25;56.22;100457.72;5092298;28;20621;-66
2023/01/01 00:38:06;;;;;;;3.83;1.13;;;;;;;19.27;56.07;100459.00;5091601;28;20186;-66
2023/01/01 00:40:32;;;;;;;2.97;1.20;;;;;;;19.26;56.05;100457.34;5074611;28;20197;-65
2023/01/01 00:42:57;;;;;;;5.40;1.27;;;;;;;19.27;56.02;100463.91;5072276;28;20506;-66
2023/01/01 00:45:23;;;;;;;5.73;1.90;;;;;;;19.29;55.86;100472.94;5073966;28;20680;-66
2023/01/01 00:47:52;;;;;;;5.33;1.10;;;;;;;19.27;56.18;100475.38;5095259;28;20642;-66
2023/01/01 00:50:18;;;;;;;5.27;1.40;;;;;;;19.26;56.14;100471.66;5109128;28;20174;-66
2023/01/01 00:52:43;;;;;;;3.83;1.27;;;;;;;19.25;56.17;100477.75;5055970;28;20498;-66
2023/01/01 00:55:09;;;;;;;2.40;1.03;;;;;;;19.27;56.01;100476.19;5053789;28;20406;-66
2023/01/01 00:57:35;;;;;;;4.57;1.57;;;;;;;19.25;56.23;100472.88;5089780;28;20190;-66
2023/01/01 01:00:00;;;;;;;2.53;1.23;;;;;;;19.26;56.08;100479.44;5069048;28;20186;-66
2023/01/01 01:02:25;;;;;;;3.17;1.30;;;;;;;19.27;55.96;100479.03;5070563;28;20174;-66
2023/01/01 01:04:51;;;;;;;4.33;1.53;;;;;;;19.27;56.13;100484.75;5084394;28;20221;-66
2023/01/01 01:07:16;;;;;;;4.40;1.43;;;;;;;19.23;56.19;100489.63;5082712;28;20687;-66
2023/01/01 01:09:42;;;;;;;4.33;1.40;;;;;;;19.27;55.97;100495.41;5090805;28;20162;-66
2023/01/01 01:12:07;;;;;;;6.50;1.30;;;;;;;19.28;56.01;100492.16;5058101;28;20681;-66
2023/01/01 01:14:33;;;;;;;3.13;1.43;;;;;;;19.27;56.12;100504.00;5071518;28;20182;-66
2023/01/01 01:16:58;;;;;;;2.40;1.30;;;;;;;19.26;56.14;100499.47;5073976;28;20187;-66
2023/01/01 01:19:25;;;;;;;3.80;1.87;;;;;;;19.26;56.02;100505.22;5071450;28;20258;-66
2023/01/01 01:21:51;;;;;;;3.33;1.17;;;;;;;19.24;56.17;100504.75;5071920;28;20238;-66
2023/01/01 01:24:16;;;;;;;4.33;1.67;;;;;;;19.24;56.14;100514.16;5086037;28;20934;-66
2023/01/01 01:26:42;;;;;;;4.27;1.50;;;;;;;19.25;56.11;100518.69;5073537;28;20241;-66
2023/01/01 01:29:07;;;;;;;2.93;1.37;;;;;;;19.25;55.90;100512.13;5091745;28;20615;-66
2023/01/01 01:31:33;;;;;;;2.80;0.97;;;;;;;19.24;55.97;100517.03;5090122;28;20159;-66
2023/01/01 01:33:59;;;;;;;3.23;1.20;;;;;;;19.24;56.00;100514.16;5073578;28;20187;-66
2023/01/01 01:36:24;;;;;;;4.07;1.30;;;;;;;19.24;56.17;100522.75;5058319;28;20510;-66
2023/01/01 01:38:50;;;;;;;4.03;1.70;;;;;;;19.23;56.23;100523.97;5091444;28;20163;-66
2023/01/01 01:41:17;;;;;;;6.07;1.60;;;;;;;19.25;56.02;100526.44;5088061;28;20222;-66
2023/01/01 01:43:51;;;;;;;3.30;1.30;;;;;;;19.24;56.07;100530.50;5092881;28;20198;-66
2023/01/01 01:46:38;;;;;;;4.13;1.50;;;;;;;19.26;56.01;100534.63;5095337;28;20463;-66
2023/01/01 01:49:14;;;;;;;4.50;1.60;;;;;;;19.24;56.38;100548.53;5095599;28;20428;-66
2023/01/01 01:51:40;;;;;;;5.30;1.40;;;;;;;19.25;55.96;100550.16;5082728;28;20447;-66
2023/01/01 01:54:10;;;;;;;4.30;1.40;;;;;;;19.21;56.24;100543.50;5074795;28;20409;-66
2023/01/01 01:56:51;;;;;;;3.53;1.50;;;;;;;19.21;56.18;100554.16;5070846;28;20265;-66
2023/01/01 01:59:17;;;;;;;2.47;1.27;;;;;;;19.26;56.33;100543.22;5057909;28;20480;-66
2023/01/01 02:01:42;;;;;;;4.20;1.20;;;;;;;19.23;56.28;100549.72;5076827;28;20440;-63
2023/01/01 02:04:08;;;;;;;2.03;1.13;;;;;;;19.25;56.24;100549.31;5074930;28;20194;-63
2023/01/01 02:06:34;;;;;;;4.60;1.73;;;;;;;19.26;56.05;100546.09;5083261;28;20637;-63
2023/01/01 02:09:02;;;;;;;3.30;1.60;;;;;;;19.24;56.01;100533.38;5094757;28;20174;-63
2023/01/01 02:11:27;;;;;;;3.13;1.40;;;;;;;19.26;56.37;100542.41;5056406;28;20439;-63
2023/01/01 02:13:53;;;;;;;4.57;2.23;;;;;;;19.20;56.09;100530.41;5101525;28;20400;-63
2023/01/01 02:16:18;;;;;;;6.40;1.67;;;;;;;19.20;56.55;100530.41;5097079;28;20597;-63
2023/01/01 02:18:55;;;;;;;4.60;1.90;;;;;;;19.21;56.18;100529.19;5115507;28;20212;-63
2023/01/01 02:21:33;;;;;;;5.13;1.43;;;;;;;19.21;56.25;100539.84;5067948;28;20198;-63
2023/01/01 02:24:13;;;;;;;4.27;1.70;;;;;;;19.22;55.97;100539.47;5064007;28;20404;-63
2023/01/01 02:26:48;;;;;;;4.47;1.80;;;;;;;19.23;56.14;100540.31;5076807;28;20490;-63
2023/01/01 02:29:35;;;;;;;2.73;1.73;;;;;;;19.22;55.96;100542.31;5074348;28;20455;-63
2023/01/01 02:32:07;;;;;;;4.23;1.70;;;;;;;19.20;56.15;100527.53;5058855;28;20743;-63
2023/01/01 02:34:36;;;;;;;5.47;1.87;;;;;;;19.23;55.96;100529.69;5056495;28;20402;-64
2023/01/01 02:37:02;;;;;;;7.10;2.17;;;;;;;19.22;56.32;100530.88;5070911;28;20796;-63
2023/01/01 02:39:30;;;;;;;4.80;1.90;;;;;;;19.20;56.00;100530.41;5073139;28;20417;-63
2023/01/01 02:41:55;;;;;;;3.30;1.67;;;;;;;19.22;55.91;100522.28;5083721;28;20609;-64
2023/01/01 02:44:21;;;;;;;3.60;1.70;;;;;;;19.21;56.25;100529.19;5076195;28;20389;-63
2023/01/01 02:46:47;;;;;;;5.50;1.80;;;;;;;19.18;56.11;100521.38;5042708;28;20210;-63
2023/01/01 02:49:12;;;;;;;4.90;1.80;;;;;;;19.20;56.02;100529.56;5075622;28;20212;-63
2023/01/01 02:52:20;;;;;;;3.33;1.57;;;;;;;19.21;55.99;100529.19;5073258;28;20277;-63
2023/01/01 02:54:57;;;;;;;3.63;1.70;;;;;;;19.20;56.19;100524.69;5009961;28;20181;-63
2023/01/01 02:57:34;;;;;;;3.00;1.40;;;;;;;19.20;56.12;100535.28;4989287;28;20543;-64
2023/01/01 03:00:23;;;;;;;5.53;1.87;;;;;;;19.20;56.21;100533.28;5026405;28;20919;-64
2023/01/01 03:03:12;;;;;;;5.10;1.50;;;;;;;19.22;56.07;100530.88;5057656;28;20409;-63
2023/01/01 03:09:04;;;;;;;4.27;1.60;;;;;;;19.19;56.11;100528.75;5072807;28;20934;-63
2023/01/01 03:11:38;;;;;;;3.07;1.53;;;;;;;19.20;56.18;100524.69;5075781;28;20923;-64
2023/01/01 03:14:17;;;;;;;3.40;1.60;;;;;;;19.18;56.31;100532.84;5073617;28;20413;-63
2023/01/01 03:16:58;;;;;;;3.83;1.60;;;;;;;19.18;56.43;100532.84;5058937;28;20516;-63
2023/01/01 03:19:27;;;;;;;4.70;1.80;;;;;;;19.20;55.99;100524.69;5093548;28;20408;-64
2023/01/01 03:21:58;;;;;;;4.07;1.73;;;;;;;19.18;56.24;100524.25;5042644;28;20930;-63
2023/01/01 03:24:34;;;;;;;3.90;1.60;;;;;;;19.16;56.32;100526.66;5074985;28;20428;-63
2023/01/01 03:27:02;;;;;;;4.97;1.80;;;;;;;19.19;56.28;100533.66;5064293;28;20472;-64
2023/01/01 03:29:28;;;;;;;3.27;1.70;;;;;;;19.18;56.31;100529.97;5072564;28;20783;-63
2023/01/01 03:31:55;;;;;;;3.87;1.50;;;;;;;19.20;56.16;100536.13;5054534;28;20413;-64
2023/01/01 03:34:26;;;;;;;3.03;1.40;;;;;;;19.17;56.29;100527.50;5086470;28;20512;-63
2023/01/01 03:36:54;;;;;;;3.97;1.60;;;;;;;19.17;56.25;100531.16;5059920;28;20491;-64
2023/01/01 03:39:21;;;;;;;4.10;1.50;;;;;;;19.16;56.38;100528.69;5054541;28;20736;-63
2023/01/01 03:42:11;;;;;;;4.10;1.60;;;;;;;19.17;56.21;100533.22;5056658;28;20495;-64
2023/01/01 03:44:42;;;;;;;4.30;1.33;;;;;;;19.16;56.32;100531.56;5092330;28;20438;-63
2023/01/01 03:47:08;;;;;;;2.73;1.30;;;;;;;19.19;56.46;100522.19;5074202;28;20417;-64
2023/01/01 03:49:33;;;;;;;4.50;1.63;;;;;;;19.18;56.16;100538.56;5093402;28;20439;-63
2023/01/01 03:52:17;;;;;;;6.10;1.80;;;;;;;19.19;56.14;100539.38;5113629;28;20172;-64
2023/01/01 03:54:52;;;;;;;3.67;1.70;;;;;;;19.17;56.19;100536.06;5086463;28;20255;-63
2023/01/01 03:57:48;;;;;;;3.60;1.40;;;;;;;19.18;56.22;100549.16;5072862;28;20795;-63
2023/01/01 04:00:18;;;;;;;3.67;1.60;;;;;;;19.19;56.23;100534.47;5072194;28;20479;-63
2023/01/01 04:02:56;;;;;;;3.93;1.50;;;;;;;19.20;56.07;100544.72;5072833;28;20408;-63
2023/01/01 04:05:22;;;;;;;3.40;1.63;;;;;;;19.17;56.53;100542.59;5089990;28;20471;-63
2023/01/01 04:07:47;;;;;;;3.33;1.60;;;;;;;19.16;56.13;100540.97;5070922;28;20962;-63
2023/01/01 04:10:18;;;;;;;4.00;1.80;;;;;;;19.16;56.04;100546.69;5040248;28;20547;-64
2023/01/01 04:12:51;;;;;;;6.70;1.97;;;;;;;19.18;56.18;100543.44;5075391;28;20204;-63
2023/01/01 04:15:18;;;;;;;4.13;1.50;;;;;;;19.18;56.37;100535.69;5073937;28;20441;-63
2023/01/01 04:17:43;;;;;;;3.83;1.70;;;;;;;19.18;56.24;100537.72;5087488;28;20439;-64
2023/01/01 04:20:09;;;;;;;3.93;1.80;;;;;;;19.16;56.39;100535.22;5056585;28;20421;-63
2023/01/01 04:22:35;;;;;;;3.70;1.60;;;;;;;19.17;56.14;100536.06;5072039;28;20171;-63
2023/01/01 04:25:01;;;;;;;5.47;2.00;;;;;;;19.16;56.08;100538.09;5100931;28;20942;-64
2023/01/01 04:27:26;;;;;;;4.37;1.37;;;;;;;19.17;56.29;100531.16;5112747;28;20149;-63
2023/01/01 04:29:51;;;;;;;3.90;1.93;;;;;;;19.19;56.22;100539.38;5101670;28;20199;-63
2023/01/01 04:32:17;;;;;;;2.40;1.20;;;;;;;19.16;56.03;100537.28;5072171;28;20175;-64
2023/01/01 04:34:42;;;;;;;6.63;1.60;;;;;;;19.17;56.05;100541.78;5086567;28;20181;-64
2023/01/01 04:37:08;;;;;;;6.30;2.07;;;;;;;19.16;56.26;100538.09;5091898;28;20187;-63
2023/01/01 04:39:33;;;;;;;2.73;1.40;;;;;;;19.16;56.22;100548.72;5088289;28;20233;-63
2023/01/01 04:41:59;;;;;;;6.03;1.70;;;;;;;19.17;56.08;100548.31;5092208;28;20214;-64
2023/01/01 04:44:24;;;;;;;3.20;1.70;;;;;;;19.16;56.36;100546.69;5072015;28;20259;-64
2023/01/01 04:46:49;;;;;;;5.67;2.47;;;;;;;19.17;56.10;100556.09;5073175;28;20248;-63
2023/01/01 04:49:15;;;;;;;4.97;2.30;;;;;;;19.17;56.24;100554.06;5071942;28;20151;-63
2023/01/01 04:51:40;;;;;;;4.60;1.97;;;;;;;19.15;56.17;100559.34;5073805;28;20630;-64
2023/01/01 04:54:06;;;;;;;4.40;1.60;;;;;;;19.15;56.27;100562.19;5071729;28;20194;-64
2023/01/01 04:56:31;;;;;;;3.87;1.83;;;;;;;19.18;56.23;100567.19;5099951;28;20193;-63
2023/01/01 04:58:57;;;;;;;3.17;1.40;;;;;;;19.19;56.17;100560.25;5090567;28;20177;-64
2023/01/01 05:01:24;;;;;;;6.57;1.73;;;;;;;19.21;56.26;100563.53;5092164;28;20162;-63
2023/01/01 05:03:49;;;;;;;3.10;1.30;;;;;;;19.19;56.35;100571.69;5070582;28;20440;-64
2023/01/01 05:06:15;;;;;;;5.77;2.50;;;;;;;19.15;56.11;100578.53;5087814;28;20466;-63
2023/01/01 05:08:43;;;;;;;3.37;1.83;;;;;;;19.16;56.13;100565.91;5091986;28;20189;-63
2023/01/01 05:11:10;;;;;;;3.10;1.73;;;;;;;19.15;56.15;100562.19;5086963;28;20939;-64
2023/01/01 05:13:36;;;;;;;4.00;1.77;;;;;;;19.14;56.54;100565.44;5071467;28;20417;-63
2023/01/01 05:16:03;;;;;;;2.93;1.60;;;;;;;19.17;56.20;100574.09;5053367;28;20401;-64
2023/01/01 05:18:28;;;;;;;2.77;1.50;;;;;;;19.20;56.34;100583.94;5073805;28;20441;-63
2023/01/01 05:21:01;;;;;;;4.13;1.57;;;;;;;19.20;55.83;100586.81;5071465;28;20424;-63
2023/01/01 05:23:27;;;;;;;4.17;1.50;;;;;;;19.19;56.09;100593.75;5073671;28;20186;-63
2023/01/01 05:25:53;;;;;;;4.47;1.70;;;;;;;19.19;56.01;100590.88;5071386;28;20471;-63
2023/01/01 05:28:18;;;;;;;3.80;1.50;;;;;;;19.17;56.25;100590.44;5055702;28;20449;-63
2023/01/01 05:30:44;;;;;;;5.43;1.80;;;;;;;19.18;56.05;100595.81;5071380;28;20166;-63
2023/01/01 05:33:09;;;;;;;2.90;1.50;;;;;;;19.17;56.50;100604.75;5073706;28;20183;-63
2023/01/01 05:35:34;;;;;;;3.43;1.67;;;;;;;19.18;56.21;100600.69;5071185;28;20500;-63
2023/01/01 05:38:00;;;;;;;2.77;1.40;;;;;;;19.19;56.07;100603.19;5089464;28;20539;-63
2023/01/01 05:40:25;;;;;;;4.47;1.87;;;;;;;19.20;56.01;100598.25;5087898;28;20673;-64
2023/01/01 05:42:51;;;;;;;4.33;1.60;;;;;;;19.20;56.08;100604.00;5051866;28;20183;-64
2023/01/01 05:45:16;;;;;;;3.83;1.57;;;;;;;19.18;56.11;100603.56;5072350;28;20844;-63
2023/01/01 05:47:42;;;;;;;2.33;1.20;;;;;;;19.17;56.40;100599.84;5103845;28;20174;-64
2023/01/01 05:50:08;;;;;;;3.23;1.53;;;;;;;19.19;56.20;100596.63;5110677;28;20158;-63
2023/01/01 05:52:33;;;;;;;3.70;1.53;;;;;;;19.19;55.90;100610.91;5093708;28;20183;-63
2023/01/01 05:54:59;;;;;;;3.30;1.57;;;;;;;19.19;56.15;100603.19;5070443;28;20405;-64
2023/01/01 05:57:27;;;;;;;3.00;1.70;;;;;;;19.20;56.06;100599.09;5071618;28;22026;-64
2023/01/01 05:59:52;;;;;;;3.57;1.53;;;;;;;19.19;55.84;100600.31;5072442;28;20803;-64
2023/01/01 06:02:18;;;;;;;4.30;1.63;;;;;;;19.20;56.23;100610.56;5073246;28;20441;-63
2023/01/01 06:04:43;;;;;;;2.73;1.47;;;;;;;19.20;56.05;100610.56;5070810;28;20692;-63
2023/01/01 06:07:08;;;;;;;3.73;1.60;;;;;;;19.18;56.57;100603.56;5085905;28;20190;-64
2023/01/01 06:09:34;;;;;;;4.20;1.63;;;;;;;19.18;56.17;100601.53;5090762;28;20175;-63
2023/01/01 06:11:59;;;;;;;7.00;2.70;;;;;;;19.20;56.19;100615.44;5079752;28;20195;-63
2023/01/01 06:14:25;;;;;;;6.23;1.77;;;;;;;19.20;56.07;100616.28;5053136;28;20179;-63
2023/01/01 06:16:50;;;;;;;2.77;1.40;;;;;;;19.18;56.09;100607.25;5073662;28;20179;-63
2023/01/01 06:19:15;;;;;;;4.07;1.47;;;;;;;19.18;56.05;100612.13;5090887;28;20181;-64
2023/01/01 06:21:41;;;;;;;3.97;1.50;;;;;;;19.22;56.08;100622.47;5103089;28;20181;-63
2023/01/01 06:24:07;;;;;;;5.47;1.93;;;;;;;19.17;56.07;100611.28;5111437;28;20170;-63
2023/01/01 06:26:32;;;;;;;3.00;1.47;;;;;;;19.22;55.99;100625.34;5085440;28;20294;-63
2023/01/01 06:28:58;;;;;;;5.07;1.63;;;;;;;19.20;56.15;100622.00;5090286;28;20469;-63
2023/01/01 06:31:24;;;;;;;3.60;1.60;;;;;;;19.19;56.31;100617.50;5115109;28;20624;-64
2023/01/01 06:33:49;;;;;;;2.10;1.13;;;;;;;19.20;56.05;100624.03;5096747;28;20426;-63
2023/01/01 06:36:16;;;;;;;4.53;1.80;;;;;;;19.19;56.21;100620.34;5085526;28;20563;-63
2023/01/01 06:38:44;;;;;;;5.13;1.90;;;;;;;19.18;56.03;100624.44;5094719;28;20177;-64
2023/01/01 06:41:10;;;;;;;4.43;1.80;;;;;;;19.18;55.96;100630.16;5087829;28;20983;-63
2023/01/01 06:43:36;;;;;;;5.53;1.80;;;;;;;19.20;56.39;100629.75;5073740;28;20417;-63
2023/01/01 06:46:15;;;;;;;3.30;1.63;;;;;;;19.24;56.02;100637.25;5073959;28;20854;-64
2023/01/01 06:48:40;;;;;;;2.50;1.27;;;;;;;19.21;55.87;100637.97;5085730;28;20185;-63
2023/01/01 06:51:16;;;;;;;3.17;1.63;;;;;;;19.23;56.06;100641.31;5102016;28;20419;-63
2023/01/01 06:53:41;;;;;;;2.57;1.37;;;;;;;19.23;56.19;100646.22;5065343;28;20617;-63
2023/01/01 06:56:06;;;;;;;3.63;1.60;;;;;;;19.22;56.13;100659.69;5074036;28;20406;-64
2023/01/01 06:58:32;;;;;;;3.00;1.53;;;;;;;19.23;56.00;100655.63;5075930;28;20738;-63
2023/01/01 07:01:04;;;;;;;2.60;1.40;;;;;;;19.16;56.14;100654.63;5055859;28;20198;-63
2023/01/01 07:03:29;;;;;;;3.03;1.53;;;;;;;19.19;55.92;100660.41;5073709;28;20244;-64
2023/01/01 07:05:55;;;;;;;3.70;1.73;;;;;;;19.21;56.08;100666.59;5077170;28;20484;-63
2023/01/01 07:08:20;;;;;;;6.73;1.90;;;;;;;19.22;56.06;100665.41;5075808;28;20186;-63
2023/01/01 07:10:45;;;;;;;2.93;1.67;;;;;;;19.23;56.21;100663.38;5072053;28;20183;-64
2023/01/01 07:13:11;;;;;;;4.53;2.00;;;;;;;19.19;56.12;100660.41;5073695;28;20170;-63
2023/01/01 07:15:36;;;;;;;4.03;1.50;;;;;;;19.20;55.96;100664.09;5073575;28;20265;-64
2023/01/01 07:18:02;;;;;;;3.87;2.20;;;;;;;19.21;56.27;100674.38;5073402;28;20171;-63
2023/01/01 07:20:27;;;;;;;4.20;1.60;;;;;;;19.25;56.13;100664.66;5075725;28;20174;-63
2023/01/01 07:22:53;;;;;;;3.10;1.70;;;;;;;19.24;55.83;100685.06;5072434;28;20240;-63
2023/01/01 07:25:18;;;;;;;2.87;1.70;;;;;;;19.24;55.93;100685.91;5072044;28;20209;-64
2023/01/01 07:27:43;;;;;;;4.43;1.70;;;;;;;19.25;56.03;100692.44;5075608;28;20198;-64
2023/01/01 07:30:09;;;;;;;5.50;1.93;;;;;;;19.24;55.97;100691.66;5054953;28;20175;-63
2023/01/01 07:32:35;;;;;;;3.60;1.87;;;;;;;19.23;55.75;100687.13;5075625;28;20187;-63
2023/01/01 07:35:00;;;;;;;2.83;1.27;;;;;;;19.25;56.15;100689.59;5073226;28;20190;-63
2023/01/01 07:37:25;;;;;;;3.20;2.00;;;;;;;19.23;56.05;100692.00;5084212;28;20560;-64
2023/01/01 07:39:51;;;;;;;3.70;2.10;;;;;;;19.21;56.25;100697.25;5087002;28;20193;-64
2023/01/01 07:42:17;;;;;;;4.70;1.90;;;;;;;19.21;56.25;100709.53;5093323;28;20709;-63
2023/01/01 07:44:42;;;;;;;5.50;1.80;;;;;;;19.21;56.19;100718.09;5081999;28;20194;-64
2023/01/01 07:47:24;;;;;;;4.63;1.97;;;;;;;19.22;55.88;100711.22;5072967;28;20177;-63
2023/01/01 07:49:50;;;;;;;2.33;1.40;;;;;;;19.25;55.90;100721.06;5064440;28;20183;-63
2023/01/01 07:52:15;;;;;;;4.10;1.77;;;;;;;19.23;55.94;100735.78;5108279;28;20542;-64
2023/01/01 07:54:41;;;;;;;2.83;1.53;;;;;;;19.21;55.99;100725.88;5113108;28;20154;-64
2023/01/01 07:57:06;;;;;;;3.30;1.50;;;;;;;19.23;56.14;100732.94;5092450;28;20187;-63
2023/01/01 07:59:32;;;;;;;5.10;1.60;;;;;;;19.23;56.24;100732.94;5092974;28;20167;-64
2023/01/01 08:01:57;;;;;;;3.20;1.60;;;;;;;19.21;56.21;100731.63;5087367;28;20183;-63
2023/01/01 08:04:22;;;;;;;2.20;1.30;;;;;;;19.24;56.26;100742.31;5072380;28;20608;-63
2023/01/01 08:06:48;;;;;;;2.63;1.43;;;;;;;19.25;56.13;100744.81;5080990;28;20198;-64
2023/01/01 08:09:13;;;;;;;3.90;1.50;;;;;;;19.25;55.91;100744.81;5077039;28;20548;-64
2023/01/01 08:11:39;;;;;;;3.87;1.60;;;;;;;19.26;56.11;100740.75;5072209;28;20171;-63
2023/01/01 08:14:04;;;;;;;4.20;1.80;;;;;;;19.25;56.26;100741.97;5090070;28;20183;-63
2023/01/01 08:16:29;;;;;;;2.90;1.70;;;;;;;19.24;56.05;100737.44;5074075;28;20175;-63
2023/01/01 08:18:55;;;;;;;3.60;1.70;;;;;;;19.26;55.99;100737.88;5092702;28;20161;-63
2023/01/01 08:21:20;;;;;;;4.77;2.20;;;;;;;19.24;55.97;100737.44;5076060;28;20187;-63
2023/01/01 08:23:46;;;;;;;3.73;1.40;;;;;;;19.25;56.03;100747.69;5072109;28;20159;-64
2023/01/01 08:26:13;;;;;;;2.77;1.67;;;;;;;19.25;56.08;100747.69;5074554;28;20267;-64
2023/01/01 08:28:39;;;;;;;3.40;1.30;;;;;;;19.26;56.14;100746.47;5071904;28;20570;-63
2023/01/01 08:31:04;;;;;;;3.37;1.60;;;;;;;19.27;55.98;100747.31;5071951;28;20402;-64
2023/01/01 08:33:29;;;;;;;2.77;1.70;;;;;;;19.25;56.08;100747.69;5074573;28;20190;-63
2023/01/01 08:35:55;;;;;;;4.07;1.83;;;;;;;19.28;55.85;100746.94;5072906;28;20178;-63
2023/01/01 08:38:20;;;;;;;4.80;1.70;;;;;;;19.29;55.89;100751.47;5096040;28;20201;-63
2023/01/01 08:40:46;;;;;;;3.10;1.40;;;;;;;19.31;56.22;100746.19;5094919;28;20254;-63
2023/01/01 08:43:11;;;;;;;4.83;1.83;;;;;;;19.30;55.87;100743.69;5092312;28;20177;-64
2023/01/01 08:45:37;;;;;;;2.97;1.80;;;;;;;19.31;56.05;100742.50;5090063;28;20202;-63
2023/01/01 08:48:02;;;;;;;3.20;1.37;;;;;;;19.26;55.91;100740.75;5071501;28;20547;-63
2023/01/01 08:50:28;;;;;;;4.53;1.57;;;;;;;19.29;55.90;100745.72;5071890;28;20175;-63
2023/01/01 08:52:53;;;;;;;3.20;1.70;;;;;;;19.27;56.27;100742.41;5093660;28;20164;-64
2023/01/01 08:55:19;;;;;;;2.40;1.40;;;;;;;19.24;56.02;100746.03;5097207;28;20529;-63
2023/01/01 08:57:44;;;;;;;3.80;1.60;;;;;;;19.27;55.97;100744.44;5077328;28;20606;-63
2023/01/01 09:00:12;;;;;;;4.43;1.40;;;;;;;19.27;56.16;100735.88;5090538;28;20861;-63
2023/01/01 09:02:37;;;;;;;5.43;1.83;;;;;;;19.28;56.42;100748.97;5073913;28;20178;-63
2023/01/01 09:05:03;;;;;;;2.50;1.37;;;;;;;19.27;55.96;100753.03;5070158;28;20956;-63
2023/01/01 09:07:28;;;;;;;3.00;1.50;;;;;;;19.23;56.17;100752.97;5084684;28;20185;-63
2023/01/01 09:09:54;;;;;;;3.97;1.57;;;;;;;19.26;55.93;100752.19;5089383;28;20175;-64
2023/01/01 09:12:19;;;;;;;4.17;1.67;;;;;;;19.28;56.11;100749.81;5053362;28;20179;-64
2023/01/01 09:14:48;;;;;;;3.13;1.60;;;;;;;19.27;55.94;100755.91;5053618;28;20162;-63
2023/01/01 09:17:13;;;;;;;3.10;1.80;;;;;;;19.25;56.20;100756.28;5073732;28;20723;-63
2023/01/01 09:19:39;;;;;;;3.23;1.60;;;;;;;19.28;56.11;100769.00;5053730;28;20405;-63
2023/01/01 09:22:08;;;;;;;3.47;1.40;;;;;;;19.27;55.97;100764.50;5071157;28;20186;-63
2023/01/01 09:24:33;;;;;;;3.40;1.70;;;;;;;19.28;56.14;100763.28;5071302;28;20163;-64
2023/01/01 09:26:59;;;;;;;3.23;1.60;;;;;;;19.28;56.01;100764.13;5073379;28;20609;-63
2023/01/01 09:29:24;;;;;;;5.80;1.70;;;;;;;19.28;56.00;100766.97;5071508;28;20160;-64
2023/01/01 09:31:50;;;;;;;4.33;1.47;;;;;;;19.29;56.09;100750.63;5073822;28;20189;-64
2023/01/01 09:34:16;;;;;;;3.33;1.63;;;;;;;19.29;56.00;100762.91;5071640;28;20170;-64
2023/01/01 09:36:42;;;;;;;3.20;1.70;;;;;;;19.29;56.08;100762.06;5079206;28;20174;-63
2023/01/01 09:39:10;;;;;;;3.37;1.73;;;;;;;19.27;55.96;100753.84;5073497;28;20732;-64
2023/01/01 09:41:53;;;;;;;2.43;1.30;;;;;;;19.31;55.79;100766.22;5056529;28;20223;-63
2023/01/01 09:44:29;;;;;;;3.10;1.40;;;;;;;19.33;55.82;100760.97;5078977;28;20412;-63
2023/01/01 09:46:58;;;;;;;2.50;1.50;;;;;;;19.34;55.96;100765.47;5090999;28;20476;-64
2023/01/01 09:49:31;;;;;;;3.10;1.50;;;;;;;19.30;56.09;100761.69;5069374;28;20534;-63
2023/01/01 09:51:59;;;;;;;3.63;1.83;;;;;;;19.31;55.76;100763.34;5070886;28;20398;-64
2023/01/01 09:54:32;;;;;;;3.60;1.43;;;;;;;19.33;55.78;100772.41;5053752;28;20398;-63
2023/01/01 09:56:59;;;;;;;4.80;1.40;;;;;;;19.30;55.91;100773.16;5078744;28;20507;-64
2023/01/01 09:59:24;;;;;;;3.23;1.30;;;;;;;19.31;55.98;100789.13;5069698;28;20480;-64
2023/01/01 10:02:01;;;;;;;2.93;1.47;;;;;;;19.32;55.82;100779.31;5062187;28;20396;-63
2023/01/01 10:04:55;;;;;;;3.63;2.00;;;;;;;19.31;55.80;100783.38;5075926;28;20232;-64
2023/01/01 10:07:37;;;;;;;3.33;1.57;;;;;;;19.34;55.83;100781.81;5093748;28;20446;-64
2023/01/01 10:10:28;;;;;;;4.90;1.33;;;;;;;19.34;55.96;100793.25;5074665;28;20401;-64
2023/01/01 10:12:56;;;;;;;3.00;1.77;;;;;;;19.33;56.34;100792.47;5056702;28;20393;-64
2023/01/01 10:15:23;;;;;;;2.90;1.57;;;;;;;19.34;55.82;100787.53;5056639;28;20447;-64
2023/01/01 10:17:54;;;;;;;2.50;1.37;;;;;;;19.35;55.78;100790.03;5077035;28;20429;-64
2023/01/01 10:20:25;;;;;;;3.70;1.77;;;;;;;19.32;55.93;100789.97;5062501;28;20444;-63
2023/01/01 10:22:53;;;;;;;3.07;1.60;;;;;;;19.33;55.84;100786.72;5096964;28;20411;-64
2023/01/01 10:25:21;;;;;;;2.87;1.77;;;;;;;19.35;55.88;100781.44;5093204;28;20451;-63
2023/01/01 10:27:57;;;;;;;3.53;1.80;;;;;;;19.32;55.75;100779.31;5076471;28;20420;-63
2023/01/01 10:30:23;;;;;;;2.33;1.30;;;;;;;19.35;56.10;100775.72;5094456;28;20408;-64
2023/01/01 10:32:50;;;;;;;3.33;1.50;;;;;;;19.35;55.99;100767.13;5064100;28;20433;-64
2023/01/01 10:35:32;;;;;;;3.23;1.30;;;;;;;19.32;55.59;100767.06;5039999;28;20160;-64
2023/01/01 10:37:57;;;;;;;4.70;1.60;;;;;;;19.35;55.84;100764.25;5070532;28;20432;-64
2023/01/01 10:40:25;;;;;;;3.20;1.70;;;;;;;19.35;55.81;100760.56;5056249;28;20420;-63
2023/01/01 10:42:55;;;;;;;3.53;1.53;;;;;;;19.37;56.14;100758.97;5087940;28;20190;-64
2023/01/01 10:45:30;;;;;;;2.50;1.30;;;;;;;19.35;55.88;100747.09;5078138;28;20563;-64
2023/01/01 10:48:09;;;;;;;3.20;1.47;;;;;;;19.36;55.93;100734.44;5073322;28;20452;-63
2023/01/01 10:50:50;;;;;;;2.57;1.50;;;;;;;19.36;55.73;100740.16;5059080;28;20436;-63
2023/01/01 10:53:37;;;;;;;2.57;1.40;;;;;;;19.36;55.75;100734.44;5072734;28;20405;-64
2023/01/01 10:56:17;;;;;;;2.67;1.53;;;;;;;19.37;55.87;100733.22;5088391;28;20427;-63
2023/01/01 10:58:44;;;;;;;3.20;1.70;;;;;;;19.37;55.82;100733.22;5058940;28;20428;-64
2023/01/01 11:01:12;;;;;;;4.10;1.60;;;;;;;19.37;55.77;100727.50;5092096;28;20417;-64
2023/01/01 11:03:51;;;;;;;3.10;1.40;;;;;;;19.35;55.88;100738.50;5082544;28;20483;-64
2023/01/01 11:06:20;;;;;;;4.50;1.53;;;;;;;19.33;55.93;100729.47;5060032;28;20962;-64
2023/01/01 11:08:48;;;;;;;3.60;1.67;;;;;;;19.37;56.07;100721.75;5088660;28;20583;-64
2023/01/01 11:11:28;;;;;;;4.37;1.83;;;;;;;19.33;55.94;100725.75;5058250;28;20417;-64
2023/01/01 11:13:58;;;;;;;3.13;1.37;;;;;;;19.38;55.96;100723.44;5088182;28;20522;-64
2023/01/01 11:16:24;;;;;;;3.90;1.97;;;;;;;19.38;55.73;100714.00;5038956;28;20937;-64
2023/01/01 11:18:49;;;;;;;3.60;1.17;;;;;;;19.38;55.76;100709.13;5055554;28;20921;-63
2023/01/01 11:21:20;;;;;;;2.70;1.53;;;;;;;19.37;55.73;100710.31;5075719;28;20437;-63
2023/01/01 11:23:46;;;;;;;3.00;1.50;;;;;;;19.33;55.92;100715.16;5039414;28;20187;-64
2023/01/01 11:26:11;;;;;;;3.70;1.57;;;;;;;19.37;55.90;100715.22;5040628;28;20851;-64
2023/01/01 11:28:36;;;;;;;3.20;1.47;;;;;;;19.36;56.08;100719.31;5070394;28;20834;-64
2023/01/01 11:31:18;;;;;;;2.73;1.30;;;;;;;19.36;55.74;100713.56;5054324;28;20175;-63
2023/01/01 11:33:45;;;;;;;2.70;1.43;;;;;;;19.32;55.94;100713.47;5071895;28;20210;-64